createdAt,value
2017-05-10T00:01:07.170Z,8.80
2017-05-10T00:03:34.980Z,8.81
2017-05-10T00:06:02.553Z,8.70
2017-05-10T00:08:30.272Z,8.64
2017-05-10T00:10:57.819Z,8.67
2017-05-10T00:13:25.340Z,8.49
2017-05-10T00:15:53.018Z,8.58
2017-05-10T00:18:20.526Z,8.57
2017-05-10T00:20:48.057Z,8.40
2017-05-10T00:23:15.608Z,8.44
2017-05-10T00:25:43.124Z,8.42
2017-05-10T00:28:11.152Z,8.25
2017-05-10T00:30:38.661Z,8.43
2017-05-10T00:33:06.166Z,8.13
2017-05-10T00:35:33.707Z,8.19
2017-05-10T00:38:01.224Z,7.92
2017-05-10T00:40:28.789Z,7.94
2017-05-10T00:42:56.307Z,8.33
2017-05-10T00:45:23.849Z,8.29
2017-05-10T00:47:51.389Z,8.18
2017-05-10T00:50:18.906Z,8.09
2017-05-10T00:52:46.464Z,7.79
2017-05-10T00:55:14.005Z,7.68
2017-05-10T00:57:41.535Z,7.77
2017-05-10T01:00:09.051Z,7.86
2017-05-10T01:02:36.608Z,8.06
2017-05-10T01:05:04.141Z,8.06
2017-05-10T01:07:32.096Z,8.03
2017-05-10T01:09:59.687Z,7.69
2017-05-10T01:12:27.241Z,7.74
2017-05-10T01:14:54.870Z,7.68
2017-05-10T01:17:22.451Z,7.68
2017-05-10T01:19:50.016Z,7.48
2017-05-10T01:22:17.528Z,7.40
2017-05-10T01:24:45.055Z,7.37
2017-05-10T01:27:12.592Z,7.40
2017-05-10T01:29:40.103Z,7.47
2017-05-10T01:32:07.670Z,7.69
2017-05-10T01:34:35.176Z,7.82
2017-05-10T01:37:02.683Z,7.53
2017-05-10T01:39:30.253Z,7.52
2017-05-10T01:41:57.768Z,7.57
2017-05-10T01:44:25.371Z,7.36
2017-05-10T01:46:52.912Z,7.28
2017-05-10T01:49:20.414Z,7.34
2017-05-10T01:51:47.967Z,7.27
2017-05-10T01:54:15.479Z,7.28
2017-05-10T01:56:43.023Z,7.16
2017-05-10T01:59:10.539Z,6.91
2017-05-10T02:01:38.172Z,7.03
2017-05-10T02:04:05.683Z,7.04
2017-05-10T02:06:33.196Z,7.09
2017-05-10T02:09:00.755Z,6.96
2017-05-10T02:11:28.265Z,7.06
2017-05-10T02:13:55.809Z,7.03
2017-05-10T02:16:23.363Z,6.93
2017-05-10T02:18:51.195Z,6.97
2017-05-10T02:21:18.708Z,6.96
2017-05-10T02:23:46.256Z,6.90
2017-05-10T02:26:13.853Z,6.97
2017-05-10T02:28:41.724Z,7.07
2017-05-10T02:31:09.232Z,7.05
2017-05-10T02:33:36.747Z,7.05
2017-05-10T02:36:04.360Z,7.15
2017-05-10T02:38:31.940Z,6.93
2017-05-10T02:40:59.495Z,7.00
2017-05-10T02:43:27.169Z,7.25
2017-05-10T02:45:55.055Z,7.42
2017-05-10T02:48:22.570Z,7.57
2017-05-10T02:50:50.087Z,7.72
2017-05-10T02:53:17.642Z,7.64
2017-05-10T02:55:45.164Z,7.40
2017-05-10T02:58:12.715Z,7.32
2017-05-10T03:00:40.259Z,7.20
2017-05-10T03:03:07.821Z,7.11
2017-05-10T03:05:35.353Z,7.12
2017-05-10T03:08:02.876Z,6.71
2017-05-10T03:10:30.472Z,6.76
2017-05-10T03:12:57.996Z,6.66
2017-05-10T03:15:25.536Z,6.74
2017-05-10T03:17:53.061Z,6.64
2017-05-10T03:20:20.612Z,6.69
2017-05-10T03:22:48.130Z,6.65
2017-05-10T03:25:15.853Z,6.36
2017-05-10T03:27:43.415Z,6.22
2017-05-10T03:30:11.232Z,6.27
2017-05-10T03:32:38.760Z,6.40
2017-05-10T03:35:06.293Z,6.61
2017-05-10T03:37:33.848Z,6.68
2017-05-10T03:40:01.368Z,6.67
2017-05-10T03:42:29.319Z,6.66
2017-05-10T03:44:56.836Z,6.61
2017-05-10T03:47:24.349Z,6.73
2017-05-10T03:49:51.911Z,6.84
2017-05-10T03:52:19.433Z,6.97
2017-05-10T03:54:47.243Z,6.99
2017-05-10T03:57:14.839Z,7.16
2017-05-10T03:59:42.355Z,7.10
2017-05-10T04:02:10.003Z,7.19
2017-05-10T04:04:37.579Z,7.11
2017-05-10T04:07:05.311Z,7.18
2017-05-10T04:09:32.853Z,7.15
2017-05-10T04:12:00.410Z,7.15
2017-05-10T04:14:27.924Z,7.33
2017-05-10T04:16:55.434Z,7.33
2017-05-10T04:19:22.979Z,7.45
2017-05-10T04:21:50.588Z,7.38
2017-05-10T04:24:18.148Z,7.24
2017-05-10T04:26:45.722Z,7.23
2017-05-10T04:29:13.297Z,7.30
2017-05-10T04:31:40.807Z,7.35
2017-05-10T04:34:08.319Z,7.19
2017-05-10T04:36:35.865Z,7.28
2017-05-10T04:39:03.395Z,7.28
2017-05-10T04:41:30.948Z,7.35
2017-05-10T04:43:58.459Z,7.37
2017-05-10T04:46:25.980Z,7.40
2017-05-10T04:48:53.541Z,7.41
2017-05-10T04:51:21.067Z,7.48
2017-05-10T04:53:48.725Z,7.54
2017-05-10T04:56:16.227Z,7.59
2017-05-10T04:58:43.754Z,7.57
2017-05-10T05:01:11.317Z,7.62
2017-05-10T05:03:38.859Z,7.64
2017-05-10T05:06:06.424Z,7.63
2017-05-10T05:08:33.927Z,7.65
2017-05-10T05:11:01.474Z,7.72
2017-05-10T05:13:29.011Z,7.76
2017-05-10T05:15:56.696Z,7.74
2017-05-10T05:18:24.222Z,7.77
2017-05-10T05:20:51.744Z,7.77
2017-05-10T05:23:19.284Z,7.93
2017-05-10T05:25:46.804Z,7.87
2017-05-10T05:28:14.372Z,7.83
2017-05-10T05:30:41.883Z,8.03
2017-05-10T05:33:09.602Z,7.98
2017-05-10T05:35:37.197Z,8.03
2017-05-10T05:38:04.698Z,8.17
2017-05-10T05:40:32.237Z,8.13
2017-05-10T05:42:59.747Z,8.13
2017-05-10T05:45:27.423Z,8.07
2017-05-10T05:47:54.936Z,8.24
2017-05-10T05:50:22.504Z,8.40
2017-05-10T05:52:50.064Z,8.43
2017-05-10T05:55:17.636Z,8.52
2017-05-10T05:57:45.289Z,8.59
2017-05-10T06:00:12.802Z,8.64
2017-05-10T06:02:40.333Z,8.58
2017-05-10T06:05:07.879Z,8.60
2017-05-10T06:07:35.409Z,8.65
2017-05-10T06:10:02.968Z,8.66
2017-05-10T06:12:30.497Z,8.74
2017-05-10T06:14:58.085Z,8.81
2017-05-10T06:17:25.612Z,8.81
2017-05-10T06:19:53.279Z,8.81
2017-05-10T06:22:20.799Z,8.82
2017-05-10T06:24:48.311Z,8.91
2017-05-10T06:27:15.856Z,8.91
2017-05-10T06:29:43.391Z,9.01
2017-05-10T06:32:10.960Z,9.11
2017-05-10T06:34:38.477Z,9.13
2017-05-10T06:37:06.067Z,9.10
2017-05-10T06:39:33.608Z,9.18
2017-05-10T06:42:01.179Z,9.33
2017-05-10T06:44:28.703Z,9.29
2017-05-10T06:46:56.370Z,9.36
2017-05-10T06:49:23.892Z,9.42
2017-05-10T06:51:51.445Z,9.50
2017-05-10T06:54:19.189Z,9.40
2017-05-10T06:56:46.729Z,9.36
2017-05-10T06:59:14.336Z,9.37
2017-05-10T07:01:41.861Z,9.48
2017-05-10T07:04:09.534Z,9.52
2017-05-10T07:06:37.163Z,9.69
2017-05-10T07:09:04.683Z,9.84
2017-05-10T07:11:32.258Z,9.85
2017-05-10T07:13:59.824Z,9.88
2017-05-10T07:16:27.395Z,10.00
2017-05-10T07:18:54.988Z,9.85
2017-05-10T07:21:22.651Z,9.78
2017-05-10T07:23:50.216Z,9.93
2017-05-10T07:26:17.893Z,9.93
2017-05-10T07:28:45.412Z,9.92
2017-05-10T07:31:12.943Z,10.05
2017-05-10T07:33:40.509Z,10.18
2017-05-10T07:36:08.053Z,10.27
2017-05-10T07:38:35.629Z,10.43
2017-05-10T07:41:03.159Z,10.25
2017-05-10T07:43:30.835Z,10.31
2017-05-10T07:45:58.451Z,10.47
2017-05-10T07:48:26.002Z,10.52
2017-05-10T07:50:53.726Z,10.62
2017-05-10T07:53:21.263Z,10.68
2017-05-10T07:55:48.903Z,10.71
2017-05-10T07:58:16.439Z,10.72
2017-05-10T08:00:44.352Z,10.88
2017-05-10T08:03:11.898Z,11.04
2017-05-10T08:05:39.531Z,11.13
2017-05-10T08:08:07.092Z,11.24
2017-05-10T08:10:34.631Z,11.32
2017-05-10T08:13:02.201Z,11.17
2017-05-10T08:15:29.727Z,11.24
2017-05-10T08:17:57.404Z,11.34
2017-05-10T08:20:24.934Z,11.37
2017-05-10T08:22:52.459Z,11.39
2017-05-10T08:25:20.160Z,11.54
2017-05-10T08:27:47.678Z,11.56
2017-05-10T08:30:15.248Z,11.80
2017-05-10T08:32:42.775Z,11.59
2017-05-10T08:35:10.496Z,11.81
2017-05-10T08:37:38.044Z,11.81
2017-05-10T08:40:05.591Z,11.88
2017-05-10T08:42:33.143Z,11.89
2017-05-10T08:45:00.688Z,12.03
2017-05-10T08:47:28.331Z,12.18
2017-05-10T08:49:55.853Z,12.28
2017-05-10T08:52:23.764Z,12.41
2017-05-10T08:54:51.283Z,12.39
2017-05-10T08:57:18.902Z,12.33
2017-05-10T08:59:46.465Z,12.40
2017-05-10T09:02:13.984Z,12.44
2017-05-10T09:04:41.536Z,12.52
2017-05-10T09:07:09.064Z,12.62
2017-05-10T09:09:36.985Z,12.76
2017-05-10T09:12:04.512Z,12.92
2017-05-10T09:14:32.272Z,12.95
2017-05-10T09:16:59.840Z,13.06
2017-05-10T09:19:27.356Z,13.22
2017-05-10T09:21:54.915Z,13.18
2017-05-10T09:24:22.464Z,13.41
2017-05-10T09:26:50.037Z,13.55
2017-05-10T09:29:17.603Z,13.47
2017-05-10T09:31:45.175Z,13.26
2017-05-10T09:34:12.739Z,13.38
2017-05-10T09:36:40.512Z,13.35
2017-05-10T09:39:08.063Z,13.62
2017-05-10T09:41:35.586Z,13.72
2017-05-10T09:44:03.177Z,13.80
2017-05-10T09:46:30.730Z,13.72
2017-05-10T09:48:58.313Z,13.83
2017-05-10T09:51:25.861Z,13.82
2017-05-10T09:53:53.433Z,13.88
2017-05-10T09:56:20.962Z,14.24
2017-05-10T09:58:48.630Z,14.35
2017-05-10T10:01:16.151Z,14.37
2017-05-10T10:03:43.734Z,14.31
2017-05-10T10:06:11.314Z,14.47
2017-05-10T10:08:39.286Z,14.58
2017-05-10T10:11:06.843Z,14.84
2017-05-10T10:13:34.391Z,14.67
2017-05-10T10:16:02.071Z,14.91
2017-05-10T10:18:29.629Z,15.10
2017-05-10T10:20:57.149Z,15.03
2017-05-10T10:23:24.756Z,14.97
2017-05-10T10:25:52.280Z,15.24
2017-05-10T10:28:19.843Z,15.68
2017-05-10T10:30:47.403Z,15.93
2017-05-10T10:33:15.086Z,15.94
2017-05-10T10:35:42.608Z,16.18
2017-05-10T10:38:10.140Z,16.42
2017-05-10T10:40:37.727Z,16.56
2017-05-10T10:43:05.246Z,16.89
2017-05-10T10:45:32.829Z,17.21
2017-05-10T10:48:00.378Z,17.32
2017-05-10T10:50:27.961Z,17.08
2017-05-10T10:52:55.512Z,17.41
2017-05-10T10:55:23.444Z,17.34
2017-05-10T10:57:50.963Z,17.34
2017-05-10T11:00:18.500Z,17.46
2017-05-10T11:02:46.055Z,17.34
2017-05-10T11:05:13.575Z,17.45
2017-05-10T11:07:41.148Z,17.49
2017-05-10T11:10:08.707Z,17.66
2017-05-10T11:12:36.263Z,17.62
2017-05-10T11:15:03.802Z,17.75
2017-05-10T11:17:31.560Z,17.81
2017-05-10T11:19:59.135Z,18.04
2017-05-10T11:22:26.681Z,17.94
2017-05-10T11:24:54.291Z,17.95
2017-05-10T11:27:21.830Z,17.83
2017-05-10T11:29:49.578Z,18.44
2017-05-10T11:32:17.100Z,18.64
2017-05-10T11:34:44.627Z,18.45
2017-05-10T11:37:12.196Z,18.88
2017-05-10T11:39:39.724Z,18.79
2017-05-10T11:42:07.292Z,19.32
2017-05-10T11:44:34.827Z,19.58
2017-05-10T11:47:02.498Z,19.70
2017-05-10T11:49:30.032Z,19.65
2017-05-10T11:51:57.562Z,19.81
2017-05-10T11:54:25.131Z,19.88
2017-05-10T11:56:52.660Z,19.99
2017-05-10T11:59:20.235Z,20.12
2017-05-10T12:01:47.765Z,19.42
2017-05-10T12:04:15.327Z,19.61
2017-05-10T12:06:42.887Z,20.08
2017-05-10T12:09:10.440Z,20.05
2017-05-10T12:11:38.003Z,20.09
2017-05-10T12:14:05.532Z,19.62
2017-05-10T12:16:33.093Z,19.88
2017-05-10T12:19:00.615Z,20.07
2017-05-10T12:21:28.164Z,19.85
2017-05-10T12:23:55.740Z,19.63
2017-05-10T12:26:23.317Z,19.32
2017-05-10T12:28:50.864Z,19.01
2017-05-10T12:31:18.401Z,18.62
2017-05-10T12:33:46.224Z,19.86
2017-05-10T12:36:13.783Z,20.31
2017-05-10T12:38:41.268Z,20.70
2017-05-10T12:41:08.819Z,20.88
2017-05-10T12:43:36.352Z,20.86
2017-05-10T12:46:03.911Z,20.56
2017-05-10T12:48:31.444Z,20.46
2017-05-10T12:50:59.004Z,20.16
2017-05-10T12:53:26.568Z,19.95
2017-05-10T12:55:54.113Z,20.08
2017-05-10T12:58:21.627Z,20.22
2017-05-10T13:00:49.816Z,20.57
2017-05-10T13:03:17.358Z,20.98
2017-05-10T13:05:45.197Z,20.75
2017-05-10T13:08:12.743Z,20.87
2017-05-10T13:10:40.259Z,20.43
2017-05-10T13:13:07.839Z,20.75
2017-05-10T13:15:35.362Z,20.96
2017-05-10T13:18:02.935Z,21.13
2017-05-10T13:20:30.495Z,21.19
2017-05-10T13:22:58.043Z,21.40
2017-05-10T13:25:25.591Z,21.88
2017-05-10T13:27:53.500Z,22.08
2017-05-10T13:30:21.022Z,22.48
2017-05-10T13:32:48.564Z,22.85
2017-05-10T13:35:16.248Z,22.39
2017-05-10T13:37:43.880Z,22.40
2017-05-10T13:40:11.784Z,22.43
2017-05-10T13:42:39.310Z,22.62
2017-05-10T13:45:06.848Z,23.03
2017-05-10T13:47:34.747Z,22.18
2017-05-10T13:50:02.264Z,22.46
2017-05-10T13:52:29.807Z,22.86
2017-05-10T13:54:57.356Z,22.75
2017-05-10T13:57:24.915Z,23.24
2017-05-10T13:59:52.493Z,23.52
2017-05-10T14:02:20.036Z,23.90
2017-05-10T14:04:47.553Z,24.03
2017-05-10T14:07:15.468Z,24.03
2017-05-10T14:09:42.990Z,24.25
2017-05-10T14:12:10.538Z,24.53
2017-05-10T14:14:38.104Z,24.55
2017-05-10T14:17:05.682Z,24.52
2017-05-10T14:19:33.668Z,24.94
2017-05-10T14:22:01.317Z,25.45
2017-05-10T14:24:28.877Z,25.83
2017-05-10T14:26:56.559Z,24.21
2017-05-10T14:29:24.209Z,24.24
2017-05-10T14:31:51.797Z,24.48
2017-05-10T14:34:19.377Z,25.16
2017-05-10T14:36:47.305Z,25.53
2017-05-10T14:39:14.855Z,25.66
2017-05-10T14:41:42.389Z,25.59
2017-05-10T14:44:09.972Z,24.71
2017-05-10T14:46:37.531Z,24.66
2017-05-10T14:49:05.141Z,24.45
2017-05-10T14:51:32.688Z,23.95
2017-05-10T14:54:00.336Z,23.78
2017-05-10T14:56:27.969Z,23.50
2017-05-10T14:58:55.595Z,24.09
2017-05-10T15:01:23.136Z,24.16
2017-05-10T15:03:50.719Z,24.03
2017-05-10T15:06:18.239Z,23.24
2017-05-10T15:08:45.817Z,23.33
2017-05-10T15:11:13.387Z,23.07
2017-05-10T15:13:40.977Z,23.25
2017-05-10T15:16:08.538Z,23.37
2017-05-10T15:18:36.067Z,23.46
2017-05-10T15:21:03.733Z,23.75
2017-05-10T15:23:31.268Z,23.89
2017-05-10T15:25:59.106Z,23.89
2017-05-10T15:28:26.694Z,23.83
2017-05-10T15:30:54.256Z,23.60
2017-05-10T15:33:21.850Z,23.29
2017-05-10T15:35:49.410Z,23.34
2017-05-10T15:38:16.946Z,23.71
2017-05-10T15:40:44.565Z,23.59
2017-05-10T15:43:12.461Z,23.76
2017-05-10T15:45:40.026Z,23.92
2017-05-10T15:48:08.524Z,24.08
2017-05-10T15:50:36.075Z,24.07
2017-05-10T15:53:03.648Z,23.55
2017-05-10T15:55:31.215Z,23.68
2017-05-10T15:57:58.760Z,23.88
2017-05-10T16:00:26.347Z,23.87
2017-05-10T16:02:53.900Z,23.73
2017-05-10T16:05:21.464Z,23.85
2017-05-10T16:07:49.040Z,23.22
2017-05-10T16:10:16.599Z,23.27
2017-05-10T16:12:44.347Z,23.54
2017-05-10T16:15:11.874Z,23.11
2017-05-10T16:17:39.407Z,22.95
2017-05-10T16:20:06.976Z,23.06
2017-05-10T16:22:34.499Z,22.82
2017-05-10T16:25:02.507Z,23.09
2017-05-10T16:27:30.044Z,22.75
2017-05-10T16:29:57.609Z,23.01
2017-05-10T16:32:25.198Z,22.91
2017-05-10T16:34:53.208Z,23.03
2017-05-10T16:37:20.771Z,22.93
2017-05-10T16:39:48.348Z,23.10
2017-05-10T16:42:15.976Z,23.26
2017-05-10T16:44:43.524Z,23.30
2017-05-10T16:47:11.096Z,23.10
2017-05-10T16:49:38.648Z,22.90
2017-05-10T16:52:06.584Z,22.76
2017-05-10T16:54:34.110Z,22.96
2017-05-10T16:57:01.635Z,22.89
2017-05-10T16:59:29.204Z,22.62
2017-05-10T17:01:56.747Z,22.81
2017-05-10T17:04:24.337Z,22.69
2017-05-10T17:06:51.885Z,22.58
2017-05-10T17:09:19.468Z,22.54
2017-05-10T17:11:47.036Z,22.56
2017-05-10T17:14:14.608Z,22.93
2017-05-10T17:16:42.183Z,22.90
2017-05-10T17:19:09.788Z,23.21
2017-05-10T17:21:37.331Z,23.34
2017-05-10T17:24:04.878Z,23.55
2017-05-10T17:26:32.856Z,23.39
2017-05-10T17:29:00.386Z,23.65
2017-05-10T17:31:27.931Z,23.63
2017-05-10T17:33:55.527Z,23.78
2017-05-10T17:36:23.058Z,23.89
2017-05-10T17:38:50.620Z,23.96
2017-05-10T17:41:18.164Z,24.00
2017-05-10T17:43:46.065Z,23.93
2017-05-10T17:46:13.600Z,24.21
2017-05-10T17:48:41.134Z,24.53
2017-05-10T17:51:08.719Z,24.48
2017-05-10T17:53:36.603Z,24.43
2017-05-10T17:56:04.139Z,24.38
2017-05-10T17:58:31.690Z,24.62
2017-05-10T18:00:59.275Z,24.50
2017-05-10T18:03:26.787Z,24.12
2017-05-10T18:05:54.332Z,23.98
2017-05-10T18:08:21.880Z,23.45
2017-05-10T18:10:49.615Z,22.70
2017-05-10T18:13:17.134Z,21.84
2017-05-10T18:15:44.702Z,21.41
2017-05-10T18:18:13.848Z,21.24
2017-05-10T18:20:41.460Z,21.03
2017-05-10T18:23:09.098Z,20.94
2017-05-10T18:25:36.641Z,20.76
2017-05-10T18:28:04.286Z,20.89
2017-05-10T18:30:31.816Z,20.85
2017-05-10T18:32:59.536Z,20.63
2017-05-10T18:35:27.048Z,20.48
2017-05-10T18:37:54.595Z,20.42
2017-05-10T18:40:22.178Z,20.30
2017-05-10T18:42:49.727Z,20.35
2017-05-10T18:45:17.655Z,20.35
2017-05-10T18:47:45.171Z,20.05
2017-05-10T18:50:12.692Z,19.91
2017-05-10T18:52:40.265Z,19.67
2017-05-10T18:55:07.797Z,19.49
2017-05-10T18:57:35.370Z,19.57
2017-05-10T19:00:02.923Z,19.46
2017-05-10T19:02:30.598Z,19.39
2017-05-10T19:04:58.142Z,19.24
2017-05-10T19:07:25.673Z,18.97
2017-05-10T19:09:53.269Z,18.99
2017-05-10T19:12:20.930Z,19.01
2017-05-10T19:14:48.475Z,18.73
2017-05-10T19:17:16.203Z,18.61
2017-05-10T19:19:43.791Z,18.59
2017-05-10T19:22:11.363Z,18.59
2017-05-10T19:24:39.145Z,18.58
2017-05-10T19:27:06.732Z,18.36
2017-05-10T19:29:34.261Z,18.41
2017-05-10T19:32:01.889Z,18.26
2017-05-10T19:34:29.433Z,18.29
2017-05-10T19:36:57.176Z,18.21
2017-05-10T19:39:24.734Z,18.14
2017-05-10T19:41:52.274Z,17.99
2017-05-10T19:44:19.844Z,17.86
2017-05-10T19:46:47.385Z,17.74
2017-05-10T19:49:15.156Z,17.61
2017-05-10T19:51:42.690Z,17.54
2017-05-10T19:54:10.206Z,17.55
2017-05-10T19:56:37.791Z,17.44
2017-05-10T19:59:05.330Z,17.30
2017-05-10T20:01:32.934Z,17.36
2017-05-10T20:04:00.451Z,17.34
2017-05-10T20:06:28.018Z,17.26
2017-05-10T20:08:55.604Z,17.02
2017-05-10T20:11:23.491Z,17.02
2017-05-10T20:13:51.033Z,16.88
2017-05-10T20:16:18.616Z,16.75
2017-05-10T20:18:46.439Z,16.71
2017-05-10T20:21:13.981Z,16.57
2017-05-10T20:23:41.522Z,16.54
2017-05-10T20:26:09.097Z,16.36
2017-05-10T20:28:36.648Z,16.39
2017-05-10T20:31:04.221Z,16.36
2017-05-10T20:33:31.768Z,16.24
2017-05-10T20:35:59.363Z,16.34
2017-05-10T20:38:26.928Z,16.35
2017-05-10T20:40:54.509Z,16.28
2017-05-10T20:43:22.055Z,16.04
2017-05-10T20:45:49.599Z,15.96
2017-05-10T20:48:17.247Z,16.10
2017-05-10T20:50:44.810Z,15.93
2017-05-10T20:53:12.394Z,15.85
2017-05-10T20:55:40.018Z,15.71
2017-05-10T20:58:07.592Z,15.79
2017-05-10T21:00:35.188Z,15.80
2017-05-10T21:03:02.740Z,15.82
2017-05-10T21:05:30.688Z,15.78
2017-05-10T21:07:58.230Z,15.57
2017-05-10T21:10:25.777Z,15.68
2017-05-10T21:12:53.353Z,15.58
2017-05-10T21:15:20.873Z,15.48
2017-05-10T21:17:48.473Z,15.46
2017-05-10T21:20:15.993Z,15.42
2017-05-10T21:22:43.672Z,15.30
2017-05-10T21:25:11.189Z,15.13
2017-05-10T21:27:38.718Z,15.20
2017-05-10T21:30:06.288Z,15.33
2017-05-10T21:32:33.836Z,15.29
2017-05-10T21:35:01.420Z,15.16
2017-05-10T21:37:28.947Z,15.20
2017-05-10T21:39:56.623Z,15.11
2017-05-10T21:42:24.144Z,15.04
2017-05-10T21:44:51.669Z,15.04
2017-05-10T21:47:19.231Z,14.98
2017-05-10T21:49:46.851Z,14.91
2017-05-10T21:52:14.397Z,14.75
2017-05-10T21:54:41.973Z,14.94
2017-05-10T21:57:09.699Z,14.77
2017-05-10T21:59:37.218Z,14.75
2017-05-10T22:02:04.768Z,14.76
2017-05-10T22:04:32.326Z,14.86
2017-05-10T22:06:59.859Z,14.91
2017-05-10T22:09:27.470Z,14.87
2017-05-10T22:11:54.987Z,14.92
2017-05-10T22:14:22.542Z,14.73
2017-05-10T22:16:50.202Z,14.68
2017-05-10T22:19:17.719Z,14.75
2017-05-10T22:21:45.375Z,14.53
2017-05-10T22:24:12.952Z,14.48
2017-05-10T22:26:40.585Z,14.39
2017-05-10T22:29:08.141Z,14.50
2017-05-10T22:31:35.655Z,14.47
2017-05-10T22:34:03.209Z,14.19
2017-05-10T22:36:30.825Z,14.35
2017-05-10T22:38:58.402Z,14.31
2017-05-10T22:41:25.918Z,14.22
2017-05-10T22:43:53.488Z,14.22
2017-05-10T22:46:21.007Z,14.27
2017-05-10T22:48:48.775Z,14.33
2017-05-10T22:51:16.348Z,14.19
2017-05-10T22:53:43.976Z,14.28
2017-05-10T22:56:11.662Z,14.25
2017-05-10T22:58:39.201Z,14.26
2017-05-10T23:01:06.764Z,14.13
2017-05-10T23:03:34.649Z,14.06
2017-05-10T23:06:08.827Z,13.96
2017-05-10T23:08:36.517Z,13.97
2017-05-10T23:11:04.040Z,13.96
2017-05-10T23:13:31.564Z,13.93
2017-05-10T23:15:59.162Z,13.95
2017-05-10T23:18:26.747Z,13.85
2017-05-10T23:20:54.315Z,13.77
2017-05-10T23:23:21.901Z,13.76
2017-05-10T23:25:49.530Z,13.76
2017-05-10T23:28:17.100Z,13.73
2017-05-10T23:30:44.625Z,13.65
2017-05-10T23:33:12.192Z,13.53
2017-05-10T23:35:39.721Z,13.60
2017-05-10T23:38:07.276Z,13.52
2017-05-10T23:40:34.910Z,13.41
2017-05-10T23:43:02.491Z,13.42
2017-05-10T23:45:30.003Z,13.24
2017-05-10T23:47:57.522Z,13.23
2017-05-10T23:50:25.086Z,13.17
2017-05-10T23:52:52.615Z,13.10
2017-05-10T23:55:20.211Z,13.06
2017-05-10T23:57:47.744Z,12.97
